Time;durP1;ratioP1;P1;durP2;ratioP2;P2;SDS_P1;SDS_P2;PMS_P1;PMS_P2;Temp;Humidity;BMP_temperature;BMP_pressure;BME280_temperature;BME280_humidity;BME280_pressure;Samples;Min_cycle;Max_cycle;Signal;HPM_P1;HPM_P2
2022/04/14 00:01:20;;;;;;;21.00;13.52;;;11.20;99.90;;;;;;4988530;28;20041;-48
2022/04/14 00:03:45;;;;;;;21.02;13.40;;;11.30;99.90;;;;;;4991561;28;20042;-46
2022/04/14 00:06:11;;;;;;;19.92;14.25;;;11.30;99.90;;;;;;4991469;28;20165;-46
2022/04/14 00:08:37;;;;;;;23.00;14.73;;;11.20;99.90;;;;;;4991280;28;20042;-45
2022/04/14 00:11:02;;;;;;;22.10;14.63;;;11.30;99.90;;;;;;4991447;28;20692;-48
2022/04/14 00:13:28;;;;;;;23.63;16.20;;;11.40;99.90;;;;;;4991135;28;20054;-49
2022/04/14 00:15:54;;;;;;;24.65;15.77;;;11.20;99.90;;;;;;4991134;28;20050;-48
2022/04/14 00:18:19;;;;;;;21.85;16.15;;;11.20;99.90;;;;;;4991340;28;20042;-49
2022/04/14 00:20:46;;;;;;;24.65;16.58;;;11.30;99.90;;;;;;4991362;28;20046;-49
2022/04/14 00:23:11;;;;;;;22.88;16.45;;;11.20;99.90;;;;;;4993016;28;20450;-50
2022/04/14 00:25:37;;;;;;;25.73;18.52;;;11.20;99.90;;;;;;4995119;28;20089;-48
2022/04/14 00:28:03;;;;;;;28.00;17.88;;;11.20;99.90;;;;;;4995287;28;20034;-47
2022/04/14 00:30:28;;;;;;;29.30;18.73;;;11.20;99.90;;;;;;4995373;28;20050;-46
2022/04/14 00:32:54;;;;;;;26.48;17.48;;;11.10;99.90;;;;;;4993517;28;20474;-46
2022/04/14 00:35:20;;;;;;;25.95;18.73;;;11.10;99.90;;;;;;4994756;28;20069;-47
2022/04/14 00:37:45;;;;;;;25.98;18.23;;;11.10;99.90;;;;;;4994948;28;20371;-47
2022/04/14 00:40:12;;;;;;;26.13;19.15;;;11.10;99.90;;;;;;4961039;28;20054;-49
2022/04/14 00:42:38;;;;;;;29.58;18.92;;;11.00;99.90;;;;;;4994719;28;20046;-47
2022/04/14 00:45:04;;;;;;;28.40;19.02;;;11.00;99.90;;;;;;4994588;28;20042;-46
2022/04/14 00:47:29;;;;;;;29.10;19.33;;;11.00;99.90;;;;;;4960849;28;20088;-46
2022/04/14 00:49:56;;;;;;;26.23;18.42;;;10.90;99.90;;;;;;4994554;28;20401;-46
2022/04/14 00:52:22;;;;;;;26.52;19.10;;;10.90;99.90;;;;;;4994005;28;20127;-46
2022/04/14 00:54:48;;;;;;;23.58;18.02;;;10.80;99.90;;;;;;4987248;28;20066;-46
2022/04/14 00:57:14;;;;;;;29.25;19.70;;;10.80;99.90;;;;;;4977053;28;20085;-46
2022/04/14 00:59:41;;;;;;;29.95;19.30;;;10.90;99.90;;;;;;4976148;28;20097;-47
2022/04/14 01:02:08;;;;;;;28.65;18.50;;;10.90;99.90;;;;;;4994517;28;20038;-46
2022/04/14 01:04:34;;;;;;;28.65;17.70;;;10.70;99.90;;;;;;4994634;28;20481;-46
2022/04/14 01:07:01;;;;;;;28.25;18.58;;;10.80;99.90;;;;;;4994102;28;20563;-46
2022/04/14 01:09:28;;;;;;;24.85;17.05;;;10.70;99.90;;;;;;4994386;28;20125;-47
2022/04/14 01:11:55;;;;;;;25.95;17.77;;;10.70;99.90;;;;;;4975898;28;20090;-49
2022/04/14 01:14:35;;;;;;;28.10;17.90;;;10.70;99.90;;;;;;4994158;28;20081;-46
2022/04/14 01:17:06;;;;;;;29.83;19.05;;;10.70;99.90;;;;;;4994136;28;20045;-50
2022/04/14 01:19:33;;;;;;;25.67;18.10;;;10.60;99.90;;;;;;4994540;28;20041;-51
2022/04/14 01:22:25;;;;;;;28.95;18.23;;;10.60;99.90;;;;;;4993614;28;20042;-46
2022/04/14 01:24:56;;;;;;;26.77;18.08;;;10.60;99.90;;;;;;4994403;28;20038;-47
2022/04/14 01:27:22;;;;;;;27.42;17.73;;;10.50;99.90;;;;;;4993123;28;20046;-48
2022/04/14 01:29:51;;;;;;;28.65;17.38;;;10.40;99.90;;;;;;4994115;28;20050;-46
2022/04/14 01:32:18;;;;;;;27.15;17.52;;;10.40;99.90;;;;;;4993465;28;20050;-45
2022/04/14 01:34:44;;;;;;;24.88;17.83;;;10.40;99.90;;;;;;4993611;28;20070;-47
2022/04/14 01:37:10;;;;;;;27.08;18.27;;;10.30;99.90;;;;;;4993343;28;20039;-44
2022/04/14 01:39:36;;;;;;;26.50;16.67;;;10.40;99.90;;;;;;4993899;28;20042;-45
2022/04/14 01:42:01;;;;;;;26.17;17.77;;;10.30;99.90;;;;;;4993190;28;20832;-46
2022/04/14 01:44:27;;;;;;;28.35;18.77;;;10.30;99.90;;;;;;4993824;28;20069;-45
2022/04/14 01:46:53;;;;;;;27.65;17.85;;;10.30;99.90;;;;;;4993766;28;20050;-47
2022/04/14 01:49:18;;;;;;;28.90;17.50;;;10.20;99.90;;;;;;4993249;28;20041;-46
2022/04/14 01:51:44;;;;;;;26.80;18.10;;;10.30;99.90;;;;;;4975845;28;20038;-49
2022/04/14 01:54:15;;;;;;;29.30;18.13;;;10.20;99.90;;;;;;4993021;28;20046;-47
2022/04/14 01:56:42;;;;;;;31.38;18.17;;;10.20;99.90;;;;;;4993478;28;20113;-46
2022/04/14 01:59:11;;;;;;;28.15;18.40;;;10.20;99.90;;;;;;4992066;28;20453;-47
2022/04/14 02:01:37;;;;;;;27.83;18.05;;;10.20;99.90;;;;;;4993228;28;20045;-47
2022/04/14 02:04:02;;;;;;;28.25;18.30;;;10.20;99.90;;;;;;4976240;28;20042;-50
2022/04/14 02:06:31;;;;;;;30.15;18.73;;;10.10;99.90;;;;;;4993124;28;20038;-49
2022/04/14 02:08:57;;;;;;;29.52;18.58;;;10.20;99.90;;;;;;4993320;28;20046;-49
2022/04/14 02:11:23;;;;;;;29.73;18.92;;;10.10;99.90;;;;;;4992987;28;20485;-47
2022/04/14 02:13:48;;;;;;;31.35;17.98;;;10.20;99.90;;;;;;4993005;28;20129;-45
2022/04/14 02:16:15;;;;;;;28.70;18.38;;;10.10;99.90;;;;;;4993057;28;20497;-48
2022/04/14 02:18:41;;;;;;;28.40;19.63;;;10.00;99.90;;;;;;4993095;28;20149;-46
2022/04/14 02:21:06;;;;;;;26.50;18.70;;;10.00;99.90;;;;;;4992171;28;20042;-48
2022/04/14 02:23:32;;;;;;;29.08;18.67;;;10.10;99.90;;;;;;4993051;28;20453;-45
2022/04/14 02:25:58;;;;;;;27.92;17.98;;;10.10;99.90;;;;;;4992959;28;20085;-46
2022/04/14 02:28:23;;;;;;;27.95;17.05;;;10.00;99.90;;;;;;4975536;28;20049;-46
2022/04/14 02:30:49;;;;;;;27.00;18.55;;;10.10;99.90;;;;;;4992964;28;20122;-47
2022/04/14 02:33:15;;;;;;;25.92;18.13;;;10.00;99.90;;;;;;4992829;28;20042;-47
2022/04/14 02:35:41;;;;;;;31.08;19.58;;;9.90;99.90;;;;;;4992668;28;20049;-47
2022/04/14 02:38:07;;;;;;;28.70;19.63;;;9.90;99.90;;;;;;4974737;28;20035;-47
2022/04/14 02:40:33;;;;;;;28.25;18.17;;;9.80;99.90;;;;;;4992839;28;20411;-47
2022/04/14 02:42:58;;;;;;;28.25;18.20;;;9.80;99.90;;;;;;4992671;28;20129;-47
2022/04/14 02:45:25;;;;;;;27.25;18.55;;;9.80;99.90;;;;;;4991944;28;20401;-49
2022/04/14 02:47:52;;;;;;;28.13;18.52;;;9.80;99.90;;;;;;4992623;28;20089;-46
2022/04/14 02:50:20;;;;;;;30.95;18.70;;;9.70;99.90;;;;;;4991927;28;20118;-46
2022/04/14 02:52:46;;;;;;;27.90;19.10;;;9.60;99.90;;;;;;4992315;28;20038;-46
2022/04/14 02:55:12;;;;;;;29.00;19.02;;;9.70;99.90;;;;;;4991916;28;20093;-46
2022/04/14 02:57:38;;;;;;;28.55;18.75;;;9.70;99.90;;;;;;4992211;28;20427;-49
2022/04/14 03:00:09;;;;;;;29.23;18.52;;;9.70;99.90;;;;;;4992362;28;20030;-47
2022/04/14 03:02:35;;;;;;;28.40;17.25;;;9.60;99.90;;;;;;4992450;28;20105;-45
2022/04/14 03:05:02;;;;;;;26.20;17.30;;;9.60;99.90;;;;;;4992388;28;20532;-48
2022/04/14 03:07:28;;;;;;;24.20;17.80;;;9.60;99.90;;;;;;4991894;28;20125;-49
2022/04/14 03:09:54;;;;;;;24.85;17.92;;;9.60;99.90;;;;;;4992143;28;20033;-47
2022/04/14 03:12:20;;;;;;;28.75;17.83;;;9.80;99.90;;;;;;4991915;28;20031;-46
2022/04/14 03:14:49;;;;;;;30.38;19.10;;;9.60;99.90;;;;;;4991851;28;20070;-49
2022/04/14 03:17:15;;;;;;;31.05;19.77;;;9.60;99.90;;;;;;4991871;28;20042;-49
2022/04/14 03:19:41;;;;;;;28.55;18.20;;;9.60;99.90;;;;;;4991653;28;20077;-47
2022/04/14 03:22:06;;;;;;;32.95;19.70;;;9.50;99.90;;;;;;4991590;28;20038;-47
2022/04/14 03:24:32;;;;;;;28.95;18.15;;;9.60;99.90;;;;;;4992010;28;20053;-47
2022/04/14 03:26:58;;;;;;;27.85;19.45;;;9.50;99.90;;;;;;4991733;28;20042;-47
2022/04/14 03:29:26;;;;;;;25.73;18.33;;;9.50;99.90;;;;;;4991820;28;20046;-48
2022/04/14 03:31:51;;;;;;;30.23;18.88;;;9.40;99.90;;;;;;4991761;28;20046;-46
2022/04/14 03:34:17;;;;;;;32.20;19.83;;;9.30;99.90;;;;;;4991938;28;20087;-46
2022/04/14 03:36:43;;;;;;;33.67;21.08;;;9.30;99.90;;;;;;4991805;28;20041;-48
2022/04/14 03:39:08;;;;;;;32.13;20.50;;;9.20;99.90;;;;;;4991773;28;20507;-48
2022/04/14 03:41:34;;;;;;;32.08;20.60;;;9.20;99.90;;;;;;4991351;28;20256;-46
2022/04/14 03:44:00;;;;;;;31.48;20.67;;;9.10;99.90;;;;;;4991523;28;20120;-49
2022/04/14 03:46:25;;;;;;;30.55;20.30;;;9.10;99.90;;;;;;4991688;28;20042;-50
2022/04/14 03:48:51;;;;;;;34.13;22.48;;;9.10;99.90;;;;;;4991502;28;20109;-46
2022/04/14 03:51:17;;;;;;;36.28;22.77;;;9.10;99.90;;;;;;4973275;28;20047;-47
2022/04/14 03:53:44;;;;;;;30.70;21.30;;;9.10;99.90;;;;;;4989686;28;20146;-48
2022/04/14 03:56:10;;;;;;;34.42;22.80;;;9.10;99.90;;;;;;5008688;28;20058;-48
2022/04/14 03:58:36;;;;;;;32.45;21.08;;;9.00;99.90;;;;;;5010884;28;20117;-46
2022/04/14 04:01:03;;;;;;;32.15;20.77;;;9.00;99.90;;;;;;5011104;28;20573;-47
2022/04/14 04:03:28;;;;;;;30.48;21.27;;;8.90;99.90;;;;;;5010834;28;20120;-47
2022/04/14 04:05:54;;;;;;;30.05;20.95;;;8.90;99.90;;;;;;5010945;28;20120;-46
2022/04/14 04:08:20;;;;;;;33.85;21.77;;;8.80;99.90;;;;;;5011285;28;20497;-46
2022/04/14 04:10:46;;;;;;;32.13;21.70;;;8.80;99.90;;;;;;4993210;28;20414;-46
2022/04/14 04:13:12;;;;;;;36.88;23.55;;;8.80;99.90;;;;;;5011081;28;20512;-48
2022/04/14 04:15:38;;;;;;;37.40;23.40;;;8.80;99.90;;;;;;5010717;28;20503;-48
2022/04/14 04:18:05;;;;;;;38.92;24.65;;;8.80;99.90;;;;;;5010881;28;20060;-45
2022/04/14 04:20:34;;;;;;;38.65;24.35;;;8.90;99.90;;;;;;5011004;28;20526;-48
2022/04/14 04:23:03;;;;;;;39.75;26.25;;;8.80;99.90;;;;;;5010266;28;20045;-47
2022/04/14 04:25:29;;;;;;;39.10;23.88;;;8.70;99.90;;;;;;5010875;28;20468;-46
2022/04/14 04:27:54;;;;;;;33.08;22.30;;;8.80;99.90;;;;;;5010463;28;20121;-47
2022/04/14 04:30:20;;;;;;;31.73;21.02;;;8.70;99.90;;;;;;5010921;28;20042;-48
2022/04/14 04:32:46;;;;;;;27.23;20.00;;;8.60;99.90;;;;;;5010472;28;20497;-46
2022/04/14 04:35:12;;;;;;;29.55;19.13;;;8.50;99.90;;;;;;5010484;28;20054;-49
2022/04/14 04:37:38;;;;;;;31.23;19.60;;;8.60;99.90;;;;;;5010523;28;20072;-49
2022/04/14 04:40:05;;;;;;;24.10;17.40;;;8.50;99.90;;;;;;5010764;28;20472;-48
2022/04/14 04:42:31;;;;;;;29.65;20.17;;;8.40;99.90;;;;;;5010528;28;20041;-45
2022/04/14 04:44:57;;;;;;;33.03;21.17;;;8.50;99.90;;;;;;5010479;28;20054;-48
2022/04/14 04:47:22;;;;;;;31.08;20.80;;;8.30;99.90;;;;;;5010449;28;20037;-44
2022/04/14 04:49:48;;;;;;;39.33;25.48;;;8.50;99.90;;;;;;5010621;28;20044;-49
2022/04/14 04:52:15;;;;;;;39.22;24.50;;;8.50;99.90;;;;;;5010153;28;20088;-48
2022/04/14 04:54:40;;;;;;;42.97;25.33;;;8.40;99.90;;;;;;5010177;28;20050;-46
2022/04/14 04:57:06;;;;;;;33.15;22.25;;;8.40;99.90;;;;;;5010014;28;20037;-45
2022/04/14 04:59:33;;;;;;;37.13;23.63;;;8.40;99.90;;;;;;4991034;28;20478;-48
2022/04/14 05:01:59;;;;;;;44.05;25.13;;;8.40;99.90;;;;;;4991027;28;20461;-46
2022/04/14 05:04:25;;;;;;;45.65;27.50;;;8.40;99.90;;;;;;4990956;28;20117;-50
2022/04/14 05:06:50;;;;;;;45.42;28.23;;;8.50;99.90;;;;;;4990602;28;20042;-46
2022/04/14 05:09:16;;;;;;;41.53;26.85;;;8.40;99.90;;;;;;4992817;28;20093;-49
2022/04/14 05:11:42;;;;;;;43.42;27.52;;;8.50;99.90;;;;;;4994343;28;20046;-50
2022/04/14 05:14:08;;;;;;;44.95;28.33;;;8.50;99.90;;;;;;4994143;28;20037;-48
2022/04/14 05:16:34;;;;;;;44.00;27.95;;;8.50;99.90;;;;;;4994393;28;20482;-46
2022/04/14 05:19:00;;;;;;;39.80;27.05;;;8.50;99.90;;;;;;4994039;28;20036;-45
2022/04/14 05:21:25;;;;;;;48.42;29.25;;;8.50;99.90;;;;;;4993913;28;20046;-47
2022/04/14 05:23:51;;;;;;;39.72;26.55;;;8.40;99.90;;;;;;4993802;28;20043;-44
2022/04/14 05:26:17;;;;;;;46.58;28.85;;;8.40;99.90;;;;;;4993910;28;20050;-45
2022/04/14 05:28:42;;;;;;;43.80;27.30;;;8.50;99.90;;;;;;4993952;28;20038;-49
2022/04/14 05:31:08;;;;;;;46.60;27.88;;;8.50;99.90;;;;;;4993714;28;20038;-45
2022/04/14 05:33:34;;;;;;;44.03;27.75;;;8.40;99.90;;;;;;4997879;28;20057;-46
2022/04/14 05:35:59;;;;;;;44.63;27.95;;;8.50;99.90;;;;;;4992620;28;20039;-48
2022/04/14 05:38:25;;;;;;;41.55;27.48;;;8.60;99.90;;;;;;4994067;28;20371;-48
2022/04/14 05:40:51;;;;;;;38.58;27.15;;;8.40;99.90;;;;;;4993852;28;20454;-45
2022/04/14 05:43:28;;;;;;;40.13;27.05;;;8.40;99.90;;;;;;4992320;28;20540;-46
2022/04/14 05:45:59;;;;;;;50.92;31.20;;;8.50;99.90;;;;;;4975753;28;20050;-48
2022/04/14 05:48:24;;;;;;;43.08;27.30;;;8.60;99.90;;;;;;4993559;28;20430;-45
2022/04/14 05:50:50;;;;;;;53.05;32.85;;;8.50;99.90;;;;;;4993815;28;20121;-45
2022/04/14 05:53:17;;;;;;;62.95;40.65;;;8.70;99.90;;;;;;4993244;28;20081;-50
2022/04/14 05:55:44;;;;;;;71.85;44.22;;;8.80;99.90;;;;;;4993001;28;20054;-45
2022/04/14 05:58:11;;;;;;;77.65;48.28;;;8.80;99.90;;;;;;4992104;28;20494;-47
2022/04/14 06:00:37;;;;;;;87.85;51.92;;;8.80;99.90;;;;;;4993673;28;20543;-45
2022/04/14 06:03:03;;;;;;;85.72;55.70;;;8.90;99.90;;;;;;4993411;28;20500;-45
2022/04/14 06:05:32;;;;;;;89.63;55.28;;;9.20;99.90;;;;;;4993399;28;20401;-45
2022/04/14 06:07:59;;;;;;;83.75;52.17;;;9.10;99.90;;;;;;4993077;28;20049;-46
2022/04/14 06:10:26;;;;;;;89.93;53.47;;;9.30;99.90;;;;;;4993060;28;20125;-46
2022/04/14 06:12:55;;;;;;;77.90;48.97;;;9.30;99.90;;;;;;4993396;28;20038;-48
2022/04/14 06:15:21;;;;;;;89.93;54.50;;;9.20;99.90;;;;;;4993036;28;20112;-49
2022/04/14 06:17:47;;;;;;;94.60;57.72;;;9.30;99.90;;;;;;4993126;28;20058;-47
2022/04/14 06:20:13;;;;;;;109.80;67.97;;;9.20;99.90;;;;;;4991960;28;20129;-48
2022/04/14 06:22:40;;;;;;;108.20;66.15;;;9.30;99.90;;;;;;4992603;28;20065;-47
2022/04/14 06:25:12;;;;;;;100.35;60.10;;;9.30;99.90;;;;;;4992928;28;20046;-45
2022/04/14 06:27:42;;;;;;;75.97;47.03;;;9.30;99.90;;;;;;4984816;28;20034;-47
2022/04/14 06:30:09;;;;;;;77.40;45.00;;;9.50;99.90;;;;;;4992984;28;20045;-48
2022/04/14 06:32:35;;;;;;;86.35;54.42;;;9.60;99.90;;;;;;4992898;28;20478;-49
2022/04/14 06:35:01;;;;;;;84.88;52.13;;;9.50;99.90;;;;;;4992693;28;20046;-46
2022/04/14 06:37:26;;;;;;;84.13;54.25;;;9.70;99.90;;;;;;4993015;28;20038;-46
2022/04/14 06:39:52;;;;;;;91.25;54.47;;;9.70;99.90;;;;;;4992743;28;20053;-49
2022/04/14 06:42:22;;;;;;;84.78;52.88;;;9.60;99.90;;;;;;4992357;28;20542;-46
2022/04/14 06:44:48;;;;;;;89.15;53.63;;;9.90;99.90;;;;;;4992883;28;20042;-48
2022/04/14 06:47:13;;;;;;;103.50;61.92;;;9.90;99.90;;;;;;4992535;28;20129;-46
2022/04/14 06:49:39;;;;;;;125.10;70.53;;;10.10;99.90;;;;;;4992523;28;20386;-47
2022/04/14 06:52:05;;;;;;;135.63;81.18;;;10.10;99.90;;;;;;4972700;28;20050;-45
2022/04/14 06:54:31;;;;;;;147.73;89.05;;;10.20;99.90;;;;;;4985312;28;20749;-49
2022/04/14 06:56:56;;;;;;;147.25;83.97;;;10.20;99.90;;;;;;4984588;28;20114;-46
2022/04/14 06:59:22;;;;;;;113.32;65.30;;;10.40;99.90;;;;;;4981918;28;20129;-46
2022/04/14 07:01:47;;;;;;;103.85;59.22;;;10.60;99.90;;;;;;4983766;28;20120;-47
2022/04/14 07:04:13;;;;;;;102.72;59.40;;;10.60;99.90;;;;;;4984646;28;20120;-48
2022/04/14 07:06:39;;;;;;;87.93;51.55;;;10.70;99.90;;;;;;4983760;28;20864;-46
2022/04/14 07:09:04;;;;;;;84.72;46.28;;;10.80;99.90;;;;;;4983781;28;20042;-48
2022/04/14 07:11:30;;;;;;;65.68;40.80;;;10.90;99.90;;;;;;4982545;28;20482;-45
2022/04/14 07:13:56;;;;;;;66.55;39.10;;;10.90;99.90;;;;;;4983648;28;20027;-47
2022/04/14 07:16:21;;;;;;;64.95;37.78;;;11.00;99.90;;;;;;4982379;28;20474;-47
2022/04/14 07:18:47;;;;;;;66.78;37.50;;;11.00;99.90;;;;;;4982857;28;20386;-46
2022/04/14 07:21:13;;;;;;;63.03;37.85;;;11.10;99.90;;;;;;4966636;28;20511;-48
2022/04/14 07:23:38;;;;;;;64.60;37.50;;;11.10;99.90;;;;;;4983086;28;20042;-48
2022/04/14 07:26:04;;;;;;;61.28;36.83;;;11.20;99.90;;;;;;4983090;28;20041;-49
2022/04/14 07:28:30;;;;;;;61.30;36.50;;;11.30;99.90;;;;;;4981658;28;20070;-47
2022/04/14 07:30:55;;;;;;;64.20;37.40;;;11.40;99.90;;;;;;4978616;28;20421;-48
2022/04/14 07:33:21;;;;;;;55.20;34.88;;;11.40;99.90;;;;;;4983331;28;20193;-45
2022/04/14 07:35:50;;;;;;;58.33;32.47;;;11.40;99.90;;;;;;4983212;28;20050;-49
2022/04/14 07:38:16;;;;;;;53.47;33.70;;;11.50;99.90;;;;;;4964916;28;20038;-49
2022/04/14 07:40:41;;;;;;;55.17;33.65;;;11.50;99.90;;;;;;4982572;28;20913;-48
2022/04/14 07:43:07;;;;;;;55.58;33.13;;;11.60;99.90;;;;;;4982934;28;20042;-50
2022/04/14 07:45:33;;;;;;;56.75;33.95;;;11.60;99.90;;;;;;4983030;28;20047;-47
2022/04/14 07:47:59;;;;;;;50.20;30.88;;;11.70;99.90;;;;;;4982512;28;20367;-46
2022/04/14 07:50:24;;;;;;;53.17;32.00;;;11.80;99.90;;;;;;4983339;28;20038;-46
2022/04/14 07:52:52;;;;;;;50.28;28.92;;;11.90;99.90;;;;;;4981258;28;20610;-49
2022/04/14 07:55:21;;;;;;;44.25;26.15;;;12.00;99.90;;;;;;4987045;28;20197;-47
2022/04/14 07:57:48;;;;;;;38.97;23.48;;;12.00;99.90;;;;;;5003199;28;20048;-51
2022/04/14 08:00:15;;;;;;;42.10;24.10;;;12.10;99.90;;;;;;5001048;28;20046;-48
2022/04/14 08:02:48;;;;;;;39.55;23.55;;;12.20;99.90;;;;;;4999633;28;20037;-47
2022/04/14 08:05:14;;;;;;;37.70;23.50;;;12.20;99.90;;;;;;4982374;28;20042;-46
2022/04/14 08:07:40;;;;;;;37.83;22.05;;;12.30;99.90;;;;;;5002096;28;20269;-50
2022/04/14 08:10:06;;;;;;;41.08;22.60;;;12.50;99.90;;;;;;5001091;28;20047;-48
2022/04/14 08:12:31;;;;;;;36.95;22.90;;;12.50;99.90;;;;;;4990800;28;20552;-48
2022/04/14 08:14:57;;;;;;;36.85;23.42;;;12.70;99.90;;;;;;4997987;28;20038;-47
2022/04/14 08:17:22;;;;;;;37.25;22.20;;;12.80;99.90;;;;;;4997776;28;20257;-45
2022/04/14 08:19:48;;;;;;;33.88;19.75;;;12.80;99.90;;;;;;4998907;28;20125;-47
2022/04/14 08:22:14;;;;;;;29.52;18.98;;;12.90;99.90;;;;;;4999202;28;20034;-45
2022/04/14 08:24:40;;;;;;;31.50;19.73;;;13.10;99.90;;;;;;4998946;28;20045;-45
2022/04/14 08:27:05;;;;;;;27.90;17.83;;;13.00;99.90;;;;;;4997877;28;20493;-48
2022/04/14 08:29:31;;;;;;;32.95;20.40;;;13.20;99.90;;;;;;4998088;28;20401;-44
2022/04/14 08:31:58;;;;;;;39.95;23.60;;;13.20;99.90;;;;;;4999666;28;20049;-46
2022/04/14 08:34:23;;;;;;;38.55;23.17;;;13.30;99.90;;;;;;4984760;28;20450;-44
2022/04/14 08:36:52;;;;;;;37.97;22.60;;;13.40;99.90;;;;;;4996110;28;20092;-50
2022/04/14 08:39:18;;;;;;;34.50;22.63;;;13.50;99.90;;;;;;4999693;28;20405;-46
2022/04/14 08:41:48;;;;;;;36.92;21.85;;;13.50;99.90;;;;;;5000163;28;20116;-48
2022/04/14 08:44:21;;;;;;;34.53;21.13;;;13.60;99.90;;;;;;4985816;28;20049;-46
2022/04/14 08:46:48;;;;;;;33.58;20.80;;;13.70;99.90;;;;;;5010313;28;20401;-47
2022/04/14 08:49:16;;;;;;;43.78;26.00;;;13.80;99.90;;;;;;5011922;28;20057;-47
2022/04/14 08:51:42;;;;;;;54.92;31.02;;;13.90;99.90;;;;;;5011030;28;20042;-48
2022/04/14 08:54:09;;;;;;;62.38;34.72;;;14.00;99.90;;;;;;5012762;28;20052;-49
2022/04/14 08:56:35;;;;;;;38.70;23.35;;;14.10;99.90;;;;;;5013054;28;20112;-47
2022/04/14 08:59:01;;;;;;;34.63;21.88;;;14.30;99.90;;;;;;5013392;28;20073;-46
2022/04/14 09:01:27;;;;;;;36.85;22.60;;;14.30;99.90;;;;;;5013247;28;20048;-47
2022/04/14 09:03:57;;;;;;;30.10;18.33;;;14.50;99.90;;;;;;5013298;28;20477;-46
2022/04/14 09:06:27;;;;;;;31.60;19.25;;;14.50;99.90;;;;;;4996516;28;20390;-45
2022/04/14 09:08:52;;;;;;;27.88;17.40;;;14.80;99.90;;;;;;4993575;28;20121;-49
2022/04/14 09:11:18;;;;;;;21.63;14.50;;;14.90;99.90;;;;;;4993748;28;20454;-46
2022/04/14 09:13:45;;;;;;;22.27;15.07;;;14.80;99.90;;;;;;5012262;28;20069;-47
2022/04/14 09:16:11;;;;;;;19.67;14.15;;;14.90;99.90;;;;;;5013062;28;20150;-46
2022/04/14 09:18:36;;;;;;;21.23;13.73;;;15.10;99.90;;;;;;4994933;28;20121;-47
2022/04/14 09:21:06;;;;;;;17.85;12.35;;;15.20;99.90;;;;;;5013398;28;20037;-49
2022/04/14 09:23:32;;;;;;;24.92;14.63;;;15.10;99.90;;;;;;5009963;28;20038;-45
2022/04/14 09:26:03;;;;;;;21.00;14.35;;;15.30;99.90;;;;;;5010778;28;20048;-45
2022/04/14 09:28:30;;;;;;;21.00;14.10;;;15.50;99.90;;;;;;5010129;28;20100;-47
2022/04/14 09:31:06;;;;;;;22.17;14.43;;;15.40;99.90;;;;;;5010196;28;20045;-47
2022/04/14 09:33:34;;;;;;;19.67;11.90;;;15.70;99.90;;;;;;5011480;28;20052;-49
2022/04/14 09:36:13;;;;;;;17.92;12.70;;;15.50;99.90;;;;;;5012541;28;20042;-47
2022/04/14 09:38:56;;;;;;;16.83;12.40;;;15.20;99.90;;;;;;4994841;28;20069;-50
2022/04/14 09:41:42;;;;;;;17.38;12.60;;;15.40;99.90;;;;;;5011413;28;20708;-48
2022/04/14 09:44:08;;;;;;;17.35;13.00;;;15.70;99.90;;;;;;5012463;28;20072;-49
2022/04/14 09:46:36;;;;;;;15.73;12.13;;;16.00;99.90;;;;;;4995125;28;20045;-50
2022/04/14 09:49:12;;;;;;;18.30;12.88;;;16.00;99.90;;;;;;5012323;28;20041;-49
2022/04/14 10:14:34;;;;;;;22.17;14.48;;;16.30;99.90;;;;;;5171402;27;20327;-46
2022/04/14 10:17:03;;;;;;;18.55;12.90;;;16.30;99.90;;;;;;5150084;27;20150;-46
2022/04/14 10:19:30;;;;;;;17.25;11.93;;;16.40;99.90;;;;;;5131425;27;20049;-50
2022/04/14 10:21:56;;;;;;;16.83;11.98;;;16.50;99.90;;;;;;5156316;27;20035;-50
2022/04/14 10:24:24;;;;;;;16.65;12.05;;;16.50;99.90;;;;;;5150417;27;20113;-48
2022/04/14 10:26:51;;;;;;;17.30;12.02;;;16.70;99.90;;;;;;5153004;27;20035;-46
2022/04/14 10:29:18;;;;;;;16.83;12.25;;;16.70;99.90;;;;;;5154869;27;20106;-47
2022/04/14 10:31:44;;;;;;;17.33;12.75;;;16.70;99.90;;;;;;5160409;27;20050;-47
2022/04/14 10:34:15;;;;;;;17.52;12.60;;;16.70;99.90;;;;;;5150939;27;20481;-47
2022/04/14 10:36:43;;;;;;;17.58;13.00;;;16.90;99.90;;;;;;5163734;27;20411;-48
2022/04/14 10:39:14;;;;;;;16.88;12.18;;;16.80;99.90;;;;;;5152912;27;20043;-47
2022/04/14 10:41:45;;;;;;;16.00;12.10;;;16.80;99.90;;;;;;5160994;27;20430;-48
2022/04/14 10:44:11;;;;;;;19.05;12.05;;;16.80;99.90;;;;;;5157351;27;20461;-45
2022/04/14 10:46:41;;;;;;;16.23;9.02;;;17.20;99.90;;;;;;5152948;27;20042;-49
2022/04/14 10:49:22;;;;;;;9.88;6.90;;;17.10;99.90;;;;;;5149446;27;20444;-46
2022/04/14 10:51:50;;;;;;;11.85;6.90;;;17.10;99.90;;;;;;5152593;27;20149;-46
2022/04/14 10:54:18;;;;;;;11.07;5.97;;;17.30;99.90;;;;;;5157665;27;20089;-46
2022/04/14 10:56:47;;;;;;;12.07;6.93;;;17.20;99.90;;;;;;5152051;27;20074;-45
2022/04/14 10:59:14;;;;;;;11.65;6.85;;;17.30;99.90;;;;;;5148226;27;20023;-47
2022/04/14 11:01:50;;;;;;;12.02;7.47;;;17.30;99.90;;;;;;5150379;27;20043;-46
2022/04/14 11:04:31;;;;;;;13.15;7.45;;;17.40;99.90;;;;;;5130566;27;20497;-50
2022/04/14 11:07:01;;;;;;;12.75;6.45;;;17.30;99.90;;;;;;5147165;27;20556;-48
2022/04/14 11:09:48;;;;;;;11.23;6.90;;;17.60;99.90;;;;;;5151494;27;20061;-48
2022/04/14 11:12:19;;;;;;;13.13;7.65;;;17.80;99.90;;;;;;5151336;27;20049;-45
2022/04/14 11:14:53;;;;;;;11.25;6.30;;;17.70;99.90;;;;;;5140221;27;20055;-47
2022/04/14 11:17:32;;;;;;;9.52;4.75;;;17.80;99.90;;;;;;5134442;27;20031;-49
2022/04/14 11:20:20;;;;;;;9.80;4.28;;;17.70;99.90;;;;;;5140213;27;20502;-47
2022/04/14 11:23:06;;;;;;;9.00;4.53;;;17.70;99.90;;;;;;5139775;27;20122;-49
2022/04/14 11:25:51;;;;;;;11.02;6.18;;;17.90;99.90;;;;;;5142410;27;20114;-44
2022/04/14 11:28:27;;;;;;;7.70;4.28;;;17.80;99.90;;;;;;5145285;27;20031;-48
2022/04/14 11:30:59;;;;;;;9.30;4.68;;;17.90;99.90;;;;;;5125504;27;20476;-46
2022/04/14 11:33:31;;;;;;;9.63;5.28;;;17.90;99.90;;;;;;5140013;27;20470;-48
2022/04/14 11:36:20;;;;;;;8.93;4.40;;;17.60;99.90;;;;;;5145426;27;20146;-48
2022/04/14 11:38:56;;;;;;;8.98;4.88;;;17.90;99.90;;;;;;5124716;27;20051;-48
2022/04/14 11:41:38;;;;;;;9.63;5.88;;;17.90;99.90;;;;;;5146482;27;20783;-48
2022/04/14 11:44:13;;;;;;;8.02;5.07;;;17.80;99.90;;;;;;5127318;27;20069;-49
2022/04/14 11:46:44;;;;;;;9.65;4.97;;;17.90;99.90;;;;;;5143319;27;20039;-45
2022/04/14 11:49:12;;;;;;;10.02;5.32;;;18.10;99.90;;;;;;5143048;27;20041;-46
2022/04/14 11:51:49;;;;;;;9.93;5.78;;;18.10;99.90;;;;;;5141465;27;20216;-45
2022/04/14 11:54:30;;;;;;;12.07;7.22;;;18.00;99.90;;;;;;5147109;27;20068;-46
2022/04/14 11:56:59;;;;;;;10.35;6.88;;;18.10;99.90;;;;;;5146286;27;20042;-46
2022/04/14 11:59:35;;;;;;;11.27;7.00;;;18.50;99.90;;;;;;5137797;27;20047;-50
2022/04/14 12:02:07;;;;;;;12.50;8.18;;;18.60;99.90;;;;;;5137023;27;21075;-45
2022/04/14 12:04:36;;;;;;;11.23;7.65;;;18.30;99.90;;;;;;5141018;27;20123;-49
2022/04/14 12:07:02;;;;;;;11.52;6.85;;;18.30;99.90;;;;;;5136712;27;20194;-46
2022/04/14 12:09:28;;;;;;;13.32;7.50;;;18.70;99.90;;;;;;5137732;27;20085;-49
2022/04/14 12:11:54;;;;;;;11.90;6.80;;;18.60;99.90;;;;;;5142482;27;20087;-47
2022/04/14 12:14:21;;;;;;;11.93;7.57;;;18.40;99.90;;;;;;5134798;27;20047;-47
2022/04/14 12:16:53;;;;;;;11.00;6.50;;;18.20;99.90;;;;;;5135648;27;20043;-49
2022/04/14 12:19:20;;;;;;;9.15;6.00;;;18.40;99.90;;;;;;5134961;27;20043;-46
2022/04/14 12:22:06;;;;;;;10.65;6.40;;;18.60;99.90;;;;;;5137740;27;20035;-48
2022/04/14 12:24:32;;;;;;;15.93;6.95;;;18.60;99.90;;;;;;5134292;27;20035;-48
2022/04/14 12:26:59;;;;;;;13.70;6.43;;;18.50;99.90;;;;;;5139757;27;20090;-47
2022/04/14 12:29:28;;;;;;;12.13;6.28;;;18.40;99.90;;;;;;5115368;27;20043;-48
2022/04/14 12:32:09;;;;;;;11.85;6.43;;;18.20;99.90;;;;;;5133347;27;20042;-47
2022/04/14 12:34:35;;;;;;;12.68;6.88;;;18.60;99.90;;;;;;5133932;27;20216;-48
2022/04/14 12:37:08;;;;;;;9.60;6.10;;;18.50;99.90;;;;;;5137163;27;20026;-46
2022/04/14 12:39:34;;;;;;;11.20;5.47;;;18.60;99.90;;;;;;5135176;27;20043;-49
2022/04/14 12:41:59;;;;;;;11.50;5.57;;;18.90;99.90;;;;;;5133902;27;20559;-48
2022/04/14 12:44:25;;;;;;;9.50;5.32;;;18.70;99.90;;;;;;5141407;27;20111;-47
2022/04/14 12:46:52;;;;;;;10.52;4.97;;;19.00;99.90;;;;;;5134253;27;20042;-49
2022/04/14 12:49:30;;;;;;;11.40;4.47;;;18.80;99.90;;;;;;5138297;27;20091;-47
2022/04/14 12:52:05;;;;;;;8.77;4.50;;;19.30;99.90;;;;;;5134449;27;20039;-47
2022/04/14 12:54:31;;;;;;;9.05;3.90;;;19.60;99.90;;;;;;5134227;27;20027;-50
2022/04/14 12:57:07;;;;;;;7.53;3.70;;;19.80;99.90;;;;;;5138234;27;20563;-47
2022/04/14 12:59:34;;;;;;;8.00;3.38;;;19.60;99.90;;;;;;5138344;27;20065;-50